createdAt,value
2023-05-24T00:01:56.702Z,6.00
2023-05-24T00:04:25.160Z,6.00
2023-05-24T00:06:54.722Z,5.90
2023-05-24T00:09:21.879Z,5.90
2023-05-24T00:11:48.771Z,5.90
2023-05-24T00:14:16.074Z,5.90
2023-05-24T00:16:42.929Z,5.80
2023-05-24T00:19:11.275Z,5.80
2023-05-24T00:21:38.353Z,5.80
2023-05-24T00:24:05.179Z,5.70
2023-05-24T00:26:31.866Z,5.70
2023-05-24T00:28:58.836Z,5.60
2023-05-24T00:31:25.533Z,5.60
2023-05-24T00:33:52.237Z,5.50
2023-05-24T00:36:18.993Z,5.50
2023-05-24T00:38:48.059Z,5.40
2023-05-24T00:41:16.394Z,5.50
2023-05-24T00:43:46.040Z,5.50
2023-05-24T00:46:20.520Z,5.50
2023-05-24T00:48:49.471Z,5.40
2023-05-24T00:51:17.533Z,5.40
2023-05-24T00:53:46.862Z,5.40
2023-05-24T00:56:15.399Z,5.50
2023-05-24T00:58:42.375Z,5.50
2023-05-24T01:01:10.966Z,5.40
2023-05-24T01:03:37.935Z,5.40
2023-05-24T01:06:07.160Z,5.30
2023-05-24T01:08:39.933Z,5.30
2023-05-24T01:11:29.071Z,5.20
2023-05-24T01:14:21.169Z,5.20
2023-05-24T01:17:20.723Z,5.20
2023-05-24T01:19:59.800Z,5.20
2023-05-24T01:23:08.532Z,5.20
2023-05-24T01:25:58.636Z,5.20
2023-05-24T01:28:26.983Z,5.30
2023-05-24T01:30:55.465Z,5.20
2023-05-24T01:33:23.702Z,5.30
2023-05-24T01:35:50.418Z,5.30
2023-05-24T01:38:17.177Z,5.20
2023-05-24T01:40:47.047Z,5.10
2023-05-24T01:43:31.514Z,5.10
2023-05-24T01:46:22.753Z,5.00
2023-05-24T01:49:23.200Z,4.80
2023-05-24T01:51:55.236Z,4.80
2023-05-24T01:54:24.651Z,4.90
2023-05-24T01:56:54.069Z,4.90
2023-05-24T01:59:22.524Z,5.00
2023-05-24T02:01:50.073Z,4.90
2023-05-24T02:04:17.580Z,4.90
2023-05-24T02:06:44.829Z,4.90
2023-05-24T02:09:11.539Z,4.70
2023-05-24T02:11:38.360Z,4.60
2023-05-24T02:14:05.010Z,4.60
2023-05-24T02:16:31.724Z,4.60
2023-05-24T02:18:58.546Z,4.50
2023-05-24T02:21:25.801Z,4.60
2023-05-24T02:23:52.639Z,4.60
2023-05-24T02:26:19.488Z,4.50
2023-05-24T02:28:46.247Z,4.40
2023-05-24T02:31:12.907Z,4.30
2023-05-24T02:33:40.412Z,4.30
2023-05-24T02:36:07.111Z,4.40
2023-05-24T02:38:33.761Z,4.30
2023-05-24T02:41:00.564Z,4.20
2023-05-24T02:43:27.208Z,4.30
2023-05-24T02:45:53.897Z,4.50
2023-05-24T02:48:20.575Z,4.60
2023-05-24T02:50:47.382Z,4.50
2023-05-24T02:53:14.110Z,4.40
2023-05-24T02:55:43.987Z,4.40
2023-05-24T02:58:12.057Z,4.30
2023-05-24T03:00:38.783Z,4.40
2023-05-24T03:03:06.172Z,4.40
2023-05-24T03:05:33.203Z,4.40
2023-05-24T03:08:00.227Z,4.50
2023-05-24T03:10:26.944Z,4.60
2023-05-24T03:12:53.598Z,4.60
2023-05-24T03:15:20.316Z,4.70
2023-05-24T03:17:47.442Z,4.70
2023-05-24T03:20:15.782Z,4.80
2023-05-24T03:22:42.523Z,4.70
2023-05-24T03:25:09.644Z,4.80
2023-05-24T03:27:36.574Z,4.80
2023-05-24T03:30:03.793Z,4.80
2023-05-24T03:32:35.238Z,4.80
2023-05-24T03:35:02.614Z,5.00
2023-05-24T03:37:29.280Z,5.00
2023-05-24T03:39:56.150Z,5.10
2023-05-24T03:42:34.435Z,5.20
2023-05-24T03:45:01.515Z,5.20
2023-05-24T03:47:28.210Z,5.30
2023-05-24T03:49:54.900Z,5.40
2023-05-24T03:52:21.617Z,5.50
2023-05-24T03:54:49.188Z,5.50
2023-05-24T03:57:15.953Z,5.50
2023-05-24T03:59:43.043Z,5.70
2023-05-24T04:02:09.932Z,5.60
2023-05-24T04:04:39.414Z,5.70
2023-05-24T04:07:06.089Z,5.90
2023-05-24T04:09:32.829Z,6.00
2023-05-24T04:11:59.519Z,6.00
2023-05-24T04:14:26.184Z,6.10
2023-05-24T04:16:53.787Z,6.10
2023-05-24T04:19:20.562Z,6.10
2023-05-24T04:21:47.228Z,6.10
2023-05-24T04:24:13.924Z,6.20
2023-05-24T04:26:43.415Z,6.30
2023-05-24T04:29:10.157Z,6.40
2023-05-24T04:31:37.053Z,6.40
2023-05-24T04:34:07.513Z,6.30
2023-05-24T04:36:35.499Z,6.30
2023-05-24T04:39:04.855Z,6.30
2023-05-24T04:41:32.253Z,6.30
2023-05-24T04:44:01.793Z,6.40
2023-05-24T04:46:28.934Z,6.40
2023-05-24T04:48:55.676Z,6.40
2023-05-24T04:51:23.381Z,6.40
2023-05-24T04:53:50.148Z,6.30
2023-05-24T04:56:17.481Z,6.40
2023-05-24T04:58:44.149Z,6.50
2023-05-24T05:01:10.931Z,6.60
2023-05-24T05:03:37.727Z,6.60
2023-05-24T05:06:04.846Z,6.50
2023-05-24T05:08:31.533Z,6.60
2023-05-24T05:10:58.677Z,6.70
2023-05-24T05:13:25.380Z,6.80
2023-05-24T05:15:52.503Z,6.90
2023-05-24T05:18:19.461Z,6.90
2023-05-24T05:20:46.613Z,6.90
2023-05-24T05:23:13.576Z,6.90
2023-05-24T05:25:40.285Z,7.00
2023-05-24T05:28:06.931Z,7.10
2023-05-24T05:30:33.732Z,7.10
2023-05-24T05:33:00.473Z,7.10
2023-05-24T05:35:27.317Z,7.20
2023-05-24T05:37:53.990Z,7.30
2023-05-24T05:40:20.771Z,7.30
2023-05-24T05:42:47.542Z,7.30
2023-05-24T05:45:14.381Z,7.30
2023-05-24T05:47:41.178Z,7.30
2023-05-24T05:50:08.208Z,7.40
2023-05-24T05:52:35.867Z,7.40
2023-05-24T05:55:02.625Z,7.50
2023-05-24T05:57:29.279Z,7.60
2023-05-24T05:59:55.983Z,7.70
2023-05-24T06:02:22.860Z,7.70
2023-05-24T06:04:50.074Z,7.60
2023-05-24T06:07:16.970Z,7.60
2023-05-24T06:09:43.699Z,7.50
2023-05-24T06:12:10.560Z,7.60
2023-05-24T06:14:38.379Z,7.60
2023-05-24T06:17:06.149Z,7.70
2023-05-24T06:19:33.048Z,7.70
2023-05-24T06:21:59.905Z,7.90
2023-05-24T06:24:28.459Z,8.00
2023-05-24T06:26:55.738Z,8.00
2023-05-24T06:29:22.719Z,8.20
2023-05-24T06:31:50.221Z,8.40
2023-05-24T06:34:20.906Z,8.50
2023-05-24T06:36:48.496Z,8.60
2023-05-24T06:39:16.123Z,8.60
2023-05-24T06:41:44.307Z,8.60
2023-05-24T06:44:11.029Z,8.60
2023-05-24T06:46:37.750Z,8.70
2023-05-24T06:49:04.523Z,8.70
2023-05-24T06:51:33.609Z,8.60
2023-05-24T06:54:00.472Z,8.80
2023-05-24T06:56:27.259Z,8.90
2023-05-24T06:58:53.901Z,9.00
2023-05-24T07:01:22.205Z,9.00
2023-05-24T07:03:49.061Z,9.10
2023-05-24T07:06:16.368Z,9.20
2023-05-24T07:08:43.037Z,9.20
2023-05-24T07:11:10.051Z,9.40
2023-05-24T07:13:36.848Z,9.90
2023-05-24T07:16:03.631Z,9.90
2023-05-24T07:18:30.799Z,10.00
2023-05-24T07:20:57.478Z,10.00
2023-05-24T07:23:24.229Z,10.10
2023-05-24T07:25:51.133Z,10.40
2023-05-24T07:28:20.005Z,10.60
2023-05-24T07:30:47.006Z,10.80
2023-05-24T07:33:13.853Z,10.90
2023-05-24T07:35:41.656Z,11.10
2023-05-24T07:38:08.377Z,11.10
2023-05-24T07:40:35.320Z,11.10
2023-05-24T07:43:03.898Z,10.90
2023-05-24T07:45:31.742Z,11.20
2023-05-24T07:47:58.624Z,11.10
2023-05-24T07:50:26.338Z,11.10
2023-05-24T07:52:53.012Z,10.80
2023-05-24T07:55:19.856Z,10.70
2023-05-24T07:57:46.630Z,10.90
2023-05-24T08:00:16.499Z,11.30
2023-05-24T08:02:46.255Z,11.60
2023-05-24T08:05:13.549Z,11.60
2023-05-24T08:07:42.210Z,11.50
2023-05-24T08:10:14.055Z,11.40
2023-05-24T08:12:42.081Z,11.20
2023-05-24T08:15:09.172Z,11.20
2023-05-24T08:17:36.477Z,11.60
2023-05-24T08:20:08.457Z,12.00
2023-05-24T08:22:35.986Z,12.10
2023-05-24T08:25:03.582Z,12.30
2023-05-24T08:27:30.513Z,12.20
2023-05-24T08:29:57.418Z,12.10
2023-05-24T08:32:24.168Z,12.00
2023-05-24T08:34:51.187Z,12.40
2023-05-24T08:37:22.496Z,12.70
2023-05-24T08:39:49.484Z,13.00
2023-05-24T08:42:16.656Z,13.10
2023-05-24T08:44:56.019Z,12.80
2023-05-24T08:47:22.885Z,12.70
2023-05-24T08:49:51.859Z,12.70
2023-05-24T08:52:20.868Z,12.80
2023-05-24T08:54:49.685Z,12.50
2023-05-24T08:57:17.454Z,12.30
2023-05-24T08:59:44.603Z,12.20
2023-05-24T09:02:13.873Z,12.40
2023-05-24T09:04:44.116Z,12.60
2023-05-24T09:07:13.660Z,12.60
2023-05-24T09:09:45.153Z,12.40
2023-05-24T09:12:21.865Z,12.30
2023-05-24T09:14:56.049Z,11.90
2023-05-24T09:17:23.505Z,11.70
2023-05-24T09:19:53.009Z,11.70
2023-05-24T09:22:23.358Z,11.50
2023-05-24T09:24:50.400Z,11.50
2023-05-24T09:27:18.380Z,11.60
2023-05-24T09:29:48.706Z,11.50
2023-05-24T09:32:21.904Z,11.30
2023-05-24T09:34:48.821Z,11.10
2023-05-24T09:37:17.687Z,11.10
2023-05-24T09:39:47.997Z,11.00
2023-05-24T09:42:21.100Z,10.90
2023-05-24T09:45:07.595Z,10.90
2023-05-24T09:47:35.461Z,11.00
2023-05-24T09:50:03.632Z,10.90
2023-05-24T09:52:30.465Z,10.90
2023-05-24T09:54:57.143Z,10.90
2023-05-24T09:57:25.748Z,11.00
2023-05-24T09:59:52.938Z,11.00
2023-05-24T10:02:22.874Z,10.90
2023-05-24T10:05:00.104Z,11.00
2023-05-24T10:07:27.341Z,10.90
2023-05-24T10:09:55.147Z,10.70
2023-05-24T10:12:23.243Z,10.60
2023-05-24T10:14:51.973Z,10.30
2023-05-24T10:17:18.875Z,10.30
2023-05-24T10:19:46.182Z,10.40
2023-05-24T10:22:15.745Z,10.40
2023-05-24T10:24:47.975Z,10.50
2023-05-24T10:27:19.291Z,10.50
2023-05-24T10:29:59.237Z,10.50
2023-05-24T10:32:31.452Z,10.80
2023-05-24T10:34:59.658Z,10.60
2023-05-24T10:37:26.910Z,10.50
2023-05-24T10:39:53.784Z,10.30
2023-05-24T10:42:21.298Z,10.40
2023-05-24T10:44:48.021Z,10.40
2023-05-24T10:47:16.784Z,10.40
2023-05-24T10:49:52.324Z,10.40
2023-05-24T10:52:19.379Z,10.40
2023-05-24T10:55:05.450Z,10.30
2023-05-24T10:57:32.943Z,10.50
2023-05-24T11:00:27.132Z,10.50
2023-05-24T11:03:09.001Z,10.50
2023-05-24T11:05:57.051Z,10.60
2023-05-24T11:08:36.320Z,10.50
2023-05-24T11:11:22.452Z,10.30
2023-05-24T11:13:57.760Z,10.20
2023-05-24T11:16:38.784Z,10.40
2023-05-24T11:19:38.817Z,10.50
2023-05-24T11:22:09.090Z,10.70
2023-05-24T11:24:36.822Z,10.90
2023-05-24T11:27:04.301Z,11.00
2023-05-24T11:29:31.302Z,11.20
2023-05-24T11:32:05.422Z,11.30
2023-05-24T11:34:33.106Z,11.40
2023-05-24T11:37:01.905Z,11.50
2023-05-24T11:39:32.396Z,11.50
2023-05-24T11:42:00.235Z,11.60
2023-05-24T11:44:29.928Z,11.70
2023-05-24T11:47:05.546Z,11.90
2023-05-24T11:49:32.327Z,12.00
2023-05-24T11:51:59.609Z,11.90
2023-05-24T11:54:31.701Z,11.80
2023-05-24T11:56:58.502Z,11.80
2023-05-24T11:59:29.312Z,11.70
2023-05-24T12:02:07.843Z,11.50
2023-05-24T12:04:35.290Z,11.50
2023-05-24T12:07:03.017Z,11.40
2023-05-24T12:09:30.017Z,11.50
2023-05-24T12:11:58.683Z,11.50
2023-05-24T12:14:30.910Z,11.50
2023-05-24T12:16:58.334Z,11.40
2023-05-24T12:19:33.667Z,11.60
2023-05-24T12:22:05.807Z,11.70
2023-05-24T12:24:32.779Z,11.80
2023-05-24T12:27:01.856Z,11.90
2023-05-24T12:29:36.372Z,12.10
2023-05-24T12:32:03.981Z,12.10
2023-05-24T12:34:30.740Z,11.80
2023-05-24T12:36:57.675Z,11.90
2023-05-24T12:39:31.810Z,12.00
2023-05-24T12:42:01.504Z,12.00
2023-05-24T12:44:31.310Z,12.10
2023-05-24T12:46:58.991Z,12.00
2023-05-24T12:49:26.744Z,11.90
2023-05-24T12:51:55.595Z,11.80
2023-05-24T12:54:31.634Z,11.90
2023-05-24T12:57:03.052Z,12.20
2023-05-24T12:59:29.866Z,12.40
2023-05-24T13:01:56.781Z,12.60
2023-05-24T13:04:26.027Z,12.70
2023-05-24T13:06:53.122Z,13.00
2023-05-24T13:09:21.995Z,13.20
2023-05-24T13:11:49.260Z,13.00
2023-05-24T13:14:16.726Z,13.00
2023-05-24T13:16:44.061Z,13.10
2023-05-24T13:19:11.554Z,13.10
2023-05-24T13:21:39.007Z,13.00
2023-05-24T13:24:06.514Z,12.80
2023-05-24T13:26:37.172Z,12.80
2023-05-24T13:31:37.830Z,13.40
2023-05-24T13:34:06.138Z,13.50
2023-05-24T13:36:33.433Z,13.60
2023-05-24T13:39:13.870Z,13.70
2023-05-24T13:41:42.488Z,13.50
2023-05-24T13:44:09.948Z,13.10
2023-05-24T13:46:37.629Z,13.10
2023-05-24T13:49:05.119Z,12.90
2023-05-24T13:51:32.841Z,13.00
2023-05-24T13:53:59.786Z,13.00
2023-05-24T13:56:32.376Z,12.90
2023-05-24T13:59:03.388Z,13.00
2023-05-24T14:01:30.981Z,12.80
2023-05-24T14:03:58.549Z,12.70
2023-05-24T14:06:25.300Z,12.60
2023-05-24T14:08:52.321Z,12.30
2023-05-24T14:11:19.650Z,12.20
2023-05-24T14:16:16.958Z,11.90
2023-05-24T14:18:43.821Z,11.90
2023-05-24T14:21:10.618Z,11.70
2023-05-24T14:23:37.433Z,11.70
2023-05-24T14:26:04.095Z,11.40
2023-05-24T14:28:30.809Z,11.60
2023-05-24T14:30:58.061Z,11.60
2023-05-24T14:33:24.885Z,11.50
2023-05-24T14:35:51.893Z,11.30
2023-05-24T14:38:18.671Z,11.30
2023-05-24T14:40:47.956Z,11.30
2023-05-24T14:43:14.734Z,11.40
2023-05-24T14:45:42.236Z,11.50
2023-05-24T14:48:11.262Z,11.70
2023-05-24T14:50:39.289Z,11.80
2023-05-24T14:53:11.671Z,11.90
2023-05-24T14:55:40.831Z,12.10
2023-05-24T14:58:13.986Z,12.30
2023-05-24T15:00:42.235Z,12.30
2023-05-24T15:03:09.469Z,12.30
2023-05-24T15:05:36.454Z,12.60
2023-05-24T15:08:05.326Z,13.00
2023-05-24T15:10:32.172Z,13.20
2023-05-24T15:12:59.208Z,13.30
2023-05-24T15:15:25.854Z,13.40
2023-05-24T15:17:52.610Z,13.40
2023-05-24T15:20:19.727Z,13.30
2023-05-24T15:22:46.628Z,13.40
2023-05-24T15:25:13.509Z,13.40
2023-05-24T15:27:40.166Z,13.30
2023-05-24T15:30:07.696Z,13.10
2023-05-24T15:32:34.480Z,13.00
2023-05-24T15:35:01.466Z,12.90
2023-05-24T15:37:28.184Z,12.80
2023-05-24T15:39:54.915Z,12.70
2023-05-24T15:42:23.516Z,12.40
2023-05-24T15:44:50.506Z,12.10
2023-05-24T15:47:17.835Z,12.00
2023-05-24T15:49:45.357Z,11.80
2023-05-24T15:52:12.174Z,11.60
2023-05-24T15:54:39.096Z,11.50
2023-05-24T15:57:06.263Z,11.30
2023-05-24T15:59:35.165Z,11.20
2023-05-24T16:02:01.858Z,11.20
2023-05-24T16:04:29.171Z,11.00
2023-05-24T16:06:55.891Z,11.10
2023-05-24T16:09:22.631Z,11.20
2023-05-24T16:11:49.458Z,11.10
2023-05-24T16:14:16.629Z,11.20
2023-05-24T16:16:46.205Z,11.20
2023-05-24T16:19:12.902Z,11.20
2023-05-24T16:21:39.633Z,11.30
2023-05-24T16:24:06.806Z,11.30
2023-05-24T16:26:33.576Z,11.40
2023-05-24T16:29:01.683Z,11.50
2023-05-24T16:31:29.590Z,11.60
2023-05-24T16:33:57.121Z,11.70
2023-05-24T16:36:24.308Z,11.90
2023-05-24T16:38:50.953Z,11.90
2023-05-24T16:41:18.195Z,12.10
2023-05-24T16:43:44.952Z,12.20
2023-05-24T16:46:11.714Z,12.30
2023-05-24T16:48:38.924Z,12.40
2023-05-24T16:51:05.745Z,12.50
2023-05-24T16:53:32.644Z,12.40
2023-05-24T16:55:59.402Z,12.60
2023-05-24T16:58:28.350Z,12.60
2023-05-24T17:00:55.359Z,12.80
2023-05-24T17:03:27.548Z,12.70
2023-05-24T17:05:56.522Z,12.80
2023-05-24T17:08:25.600Z,12.70
2023-05-24T17:10:55.990Z,12.80
2023-05-24T17:13:23.577Z,12.90
2023-05-24T17:15:55.115Z,12.90
2023-05-24T17:18:29.619Z,12.80
2023-05-24T17:21:01.634Z,12.80
2023-05-24T17:23:34.769Z,12.80
2023-05-24T17:26:02.571Z,12.60
2023-05-24T17:28:29.896Z,12.40
2023-05-24T17:30:58.553Z,12.30
2023-05-24T17:33:27.893Z,12.40
2023-05-24T17:36:00.762Z,12.40
2023-05-24T17:38:28.509Z,12.30
2023-05-24T17:40:59.549Z,12.40
2023-05-24T17:43:31.832Z,12.40
2023-05-24T17:46:04.122Z,12.40
2023-05-24T17:48:41.194Z,12.40
2023-05-24T17:51:09.854Z,12.30
2023-05-24T17:53:38.135Z,12.10
2023-05-24T17:56:06.565Z,12.10
2023-05-24T17:58:35.717Z,12.20
2023-05-24T18:01:05.279Z,12.10
2023-05-24T18:03:32.571Z,12.00
2023-05-24T18:05:59.776Z,12.00
2023-05-24T18:08:26.537Z,12.10
2023-05-24T18:10:53.225Z,12.10
2023-05-24T18:13:19.972Z,12.10
2023-05-24T18:15:46.761Z,12.00
2023-05-24T18:18:13.630Z,11.90
2023-05-24T18:20:40.660Z,11.80
2023-05-24T18:23:07.435Z,11.80
2023-05-24T18:25:34.529Z,11.80
2023-05-24T18:28:01.925Z,11.80
2023-05-24T18:30:28.582Z,11.80
2023-05-24T18:33:06.853Z,11.70
2023-05-24T18:35:35.098Z,11.70
2023-05-24T18:38:01.869Z,11.60
2023-05-24T18:40:28.523Z,11.50
2023-05-24T18:42:55.389Z,11.30
2023-05-24T18:45:22.647Z,11.30
2023-05-24T18:47:49.380Z,11.30
2023-05-24T18:50:16.178Z,11.30
2023-05-24T18:52:42.853Z,11.20
2023-05-24T18:55:12.351Z,11.30
2023-05-24T18:57:39.461Z,11.20
2023-05-24T19:00:07.050Z,11.20
2023-05-24T19:02:38.741Z,11.10
2023-05-24T19:05:07.156Z,10.90
2023-05-24T19:07:35.339Z,10.80
2023-05-24T19:10:02.770Z,10.70
2023-05-24T19:12:30.060Z,10.70
2023-05-24T19:14:56.895Z,10.60
2023-05-24T19:17:24.693Z,10.60
2023-05-24T19:19:51.698Z,10.70
2023-05-24T19:22:18.467Z,10.40
2023-05-24T19:24:45.284Z,10.40
2023-05-24T19:27:12.103Z,10.40
2023-05-24T19:29:39.750Z,10.30
2023-05-24T19:32:07.332Z,10.30
2023-05-24T19:34:36.926Z,10.30
2023-05-24T19:37:04.070Z,10.30
2023-05-24T19:39:30.931Z,10.20
2023-05-24T19:41:57.656Z,10.10
2023-05-24T19:44:24.700Z,10.10
2023-05-24T19:46:51.727Z,10.00
2023-05-24T19:49:18.464Z,10.00
2023-05-24T19:51:45.170Z,9.90
2023-05-24T19:54:12.731Z,9.70
2023-05-24T19:56:39.495Z,9.70
2023-05-24T19:59:06.303Z,9.70
2023-05-24T20:01:33.313Z,9.70
2023-05-24T20:04:00.071Z,9.50
2023-05-24T20:06:27.395Z,9.50
2023-05-24T20:08:57.610Z,9.40
2023-05-24T20:11:26.987Z,9.40
2023-05-24T20:13:55.712Z,9.20
2023-05-24T20:16:23.339Z,9.20
2023-05-24T20:18:50.122Z,9.20
2023-05-24T20:21:20.467Z,9.10
2023-05-24T20:23:47.113Z,9.00
2023-05-24T20:26:14.354Z,8.90
2023-05-24T20:28:40.995Z,8.80
2023-05-24T20:31:07.696Z,8.80
2023-05-24T20:33:37.911Z,8.70
2023-05-24T20:36:05.390Z,8.90
2023-05-24T20:38:32.178Z,8.90
2023-05-24T20:40:59.517Z,8.90
2023-05-24T20:43:26.365Z,8.70
2023-05-24T20:45:53.095Z,8.30
2023-05-24T20:48:20.016Z,8.10
2023-05-24T20:50:46.948Z,8.10
2023-05-24T20:53:13.598Z,8.20
2023-05-24T20:55:40.294Z,8.20
2023-05-24T20:58:06.988Z,8.10
2023-05-24T21:00:33.720Z,8.00
2023-05-24T21:03:00.420Z,8.00
2023-05-24T21:05:27.150Z,8.00
2023-05-24T21:07:53.829Z,8.10
2023-05-24T21:10:20.550Z,8.10
2023-05-24T21:12:48.322Z,8.10
2023-05-24T21:15:15.199Z,8.00
2023-05-24T21:17:41.943Z,7.80
2023-05-24T21:20:09.185Z,7.80
2023-05-24T21:22:35.937Z,7.80
2023-05-24T21:25:02.634Z,7.90
2023-05-24T21:27:29.384Z,7.80
2023-05-24T21:29:56.136Z,7.80
2023-05-24T21:32:22.810Z,7.70
2023-05-24T21:34:49.816Z,7.50
2023-05-24T21:37:17.246Z,7.50
2023-05-24T21:39:44.610Z,7.50
2023-05-24T21:42:11.410Z,7.40
2023-05-24T21:44:38.263Z,7.40
2023-05-24T21:47:05.391Z,7.30
2023-05-24T21:49:32.064Z,7.30
2023-05-24T21:51:58.729Z,7.30
2023-05-24T21:54:25.654Z,7.10
2023-05-24T21:56:52.320Z,7.10
2023-05-24T21:59:18.984Z,7.10
2023-05-24T22:01:45.847Z,7.00
2023-05-24T22:04:12.789Z,7.10
2023-05-24T22:06:41.354Z,7.10
2023-05-24T22:09:11.572Z,7.10
2023-05-24T22:11:38.324Z,7.00
2023-05-24T22:14:05.026Z,6.80
2023-05-24T22:16:31.776Z,6.70
2023-05-24T22:18:58.505Z,6.80
2023-05-24T22:21:26.015Z,6.90
2023-05-24T22:23:52.687Z,6.80
2023-05-24T22:26:19.323Z,6.80
2023-05-24T22:28:53.357Z,6.70
2023-05-24T22:31:21.350Z,6.60
2023-05-24T22:33:49.386Z,6.60
2023-05-24T22:36:16.122Z,6.60
2023-05-24T22:38:43.883Z,6.40
2023-05-24T22:41:10.904Z,6.30
2023-05-24T22:43:37.713Z,6.30
2023-05-24T22:46:07.595Z,6.30
2023-05-24T22:48:35.789Z,6.30
2023-05-24T22:51:02.527Z,6.20
2023-05-24T22:53:29.543Z,6.10
2023-05-24T22:55:56.232Z,6.00
2023-05-24T22:58:24.664Z,5.90
2023-05-24T23:00:51.766Z,6.00
2023-05-24T23:03:18.622Z,6.10
2023-05-24T23:05:45.694Z,6.00
2023-05-24T23:08:15.370Z,5.90
2023-05-24T23:10:45.453Z,5.80
2023-05-24T23:13:14.324Z,5.80
2023-05-24T23:15:41.264Z,5.80
2023-05-24T23:18:09.995Z,5.90
2023-05-24T23:20:40.097Z,5.90
2023-05-24T23:23:10.053Z,5.70
2023-05-24T23:25:37.620Z,5.70
2023-05-24T23:28:04.597Z,5.80
2023-05-24T23:30:31.322Z,5.60
2023-05-24T23:32:58.991Z,5.60
2023-05-24T23:35:25.684Z,5.50
2023-05-24T23:37:53.638Z,5.50
2023-05-24T23:40:20.840Z,5.50
2023-05-24T23:42:48.808Z,5.60
2023-05-24T23:45:15.538Z,5.60
2023-05-24T23:47:42.418Z,5.70
2023-05-24T23:50:09.736Z,5.70
2023-05-24T23:52:36.440Z,5.70
2023-05-24T23:55:03.372Z,5.80
2023-05-24T23:57:30.227Z,5.70
2023-05-24T23:59:56.964Z,5.70
